sensor_id;sensor_type;location;lat;lon;timestamp;temperature;humidity
61672;DHT22;47572;0.00000000;0.00000000;2023-01-31T00:01:25;18.20;63.10
61672;DHT22;47572;0.00000000;0.00000000;2023-01-31T00:03:53;18.20;63.10
61672;DHT22;47572;0.00000000;0.00000000;2023-01-31T00:06:24;18.20;63.10
61672;DHT22;47572;0.00000000;0.00000000;2023-01-31T00:08:51;18.20;63.20
61672;DHT22;47572;0.00000000;0.00000000;2023-01-31T00:11:19;18.20;63.20
61672;DHT22;47572;0.00000000;0.00000000;2023-01-31T00:13:45;18.20;63.20
61672;DHT22;47572;0.00000000;0.00000000;2023-01-31T00:16:13;18.20;63.20
61672;DHT22;47572;0.00000000;0.00000000;2023-01-31T00:18:39;18.20;63.30
61672;DHT22;47572;0.00000000;0.00000000;2023-01-31T00:21:08;18.20;63.20
61672;DHT22;47572;0.00000000;0.00000000;2023-01-31T00:23:35;18.10;63.20
61672;DHT22;47572;0.00000000;0.00000000;2023-01-31T00:26:17;18.10;63.20
61672;DHT22;47572;0.00000000;0.00000000;2023-01-31T00:28:45;18.10;63.20
61672;DHT22;47572;0.00000000;0.00000000;2023-01-31T00:31:12;18.10;63.20
61672;DHT22;47572;0.00000000;0.00000000;2023-01-31T00:33:41;18.10;63.20
61672;DHT22;47572;0.00000000;0.00000000;2023-01-31T00:36:13;18.10;63.20
61672;DHT22;47572;0.00000000;0.00000000;2023-01-31T00:38:39;18.10;63.20
61672;DHT22;47572;0.00000000;0.00000000;2023-01-31T00:41:07;18.00;63.10
61672;DHT22;47572;0.00000000;0.00000000;2023-01-31T00:43:34;18.10;63.20
61672;DHT22;47572;0.00000000;0.00000000;2023-01-31T00:46:00;18.00;64.00
61672;DHT22;47572;0.00000000;0.00000000;2023-01-31T00:48:26;18.00;63.10
61672;DHT22;47572;0.00000000;0.00000000;2023-01-31T00:50:53;18.00;63.10
61672;DHT22;47572;0.00000000;0.00000000;2023-01-31T00:53:19;18.00;63.00
61672;DHT22;47572;0.00000000;0.00000000;2023-01-31T00:55:53;18.00;63.00
61672;DHT22;47572;0.00000000;0.00000000;2023-01-31T00:58:20;18.00;63.00
61672;DHT22;47572;0.00000000;0.00000000;2023-01-31T01:00:46;18.00;63.00
61672;DHT22;47572;0.00000000;0.00000000;2023-01-31T01:03:13;18.00;63.00
61672;DHT22;47572;0.00000000;0.00000000;2023-01-31T01:05:40;18.00;63.00
61672;DHT22;47572;0.00000000;0.00000000;2023-01-31T01:08:06;18.00;63.00
61672;DHT22;47572;0.00000000;0.00000000;2023-01-31T01:10:33;18.00;63.00
61672;DHT22;47572;0.00000000;0.00000000;2023-01-31T01:12:58;18.00;63.00
61672;DHT22;47572;0.00000000;0.00000000;2023-01-31T01:15:25;18.00;62.90
61672;DHT22;47572;0.00000000;0.00000000;2023-01-31T01:17:53;18.00;62.90
61672;DHT22;47572;0.00000000;0.00000000;2023-01-31T01:20:19;18.00;62.90
61672;DHT22;47572;0.00000000;0.00000000;2023-01-31T01:22:45;18.00;62.90
61672;DHT22;47572;0.00000000;0.00000000;2023-01-31T01:25:12;17.90;62.80
61672;DHT22;47572;0.00000000;0.00000000;2023-01-31T01:27:42;17.90;62.90
61672;DHT22;47572;0.00000000;0.00000000;2023-01-31T01:30:08;17.90;62.80
61672;DHT22;47572;0.00000000;0.00000000;2023-01-31T01:32:35;17.90;62.80
61672;DHT22;47572;0.00000000;0.00000000;2023-01-31T01:35:19;17.90;62.80
61672;DHT22;47572;0.00000000;0.00000000;2023-01-31T01:37:45;17.90;62.80
61672;DHT22;47572;0.00000000;0.00000000;2023-01-31T01:40:11;17.90;63.70
61672;DHT22;47572;0.00000000;0.00000000;2023-01-31T01:42:37;17.90;62.80
61672;DHT22;47572;0.00000000;0.00000000;2023-01-31T01:45:13;17.90;62.80
61672;DHT22;47572;0.00000000;0.00000000;2023-01-31T01:47:53;17.90;62.80
61672;DHT22;47572;0.00000000;0.00000000;2023-01-31T01:50:30;17.80;62.70
61672;DHT22;47572;0.00000000;0.00000000;2023-01-31T01:53:14;17.80;62.80
61672;DHT22;47572;0.00000000;0.00000000;2023-01-31T01:55:44;17.80;62.80
61672;DHT22;47572;0.00000000;0.00000000;2023-01-31T01:58:18;17.80;62.90
61672;DHT22;47572;0.00000000;0.00000000;2023-01-31T02:00:45;17.80;62.90
61672;DHT22;47572;0.00000000;0.00000000;2023-01-31T02:03:14;17.80;62.90
61672;DHT22;47572;0.00000000;0.00000000;2023-01-31T02:05:47;17.80;62.90
61672;DHT22;47572;0.00000000;0.00000000;2023-01-31T02:08:29;17.80;62.90
61672;DHT22;47572;0.00000000;0.00000000;2023-01-31T02:13:40;17.80;62.90
61672;DHT22;47572;0.00000000;0.00000000;2023-01-31T02:16:07;17.70;62.90
61672;DHT22;47572;0.00000000;0.00000000;2023-01-31T02:18:34;17.70;62.90
61672;DHT22;47572;0.00000000;0.00000000;2023-01-31T02:32:20;17.60;62.90
61672;DHT22;47572;0.00000000;0.00000000;2023-01-31T02:37:42;17.60;63.00
61672;DHT22;47572;0.00000000;0.00000000;2023-01-31T02:43:25;17.60;63.00
61672;DHT22;47572;0.00000000;0.00000000;2023-01-31T02:46:10;17.60;63.00
61672;DHT22;47572;0.00000000;0.00000000;2023-01-31T02:48:52;17.60;63.00
61672;DHT22;47572;0.00000000;0.00000000;2023-01-31T02:51:34;17.50;63.00
61672;DHT22;47572;0.00000000;0.00000000;2023-01-31T02:54:23;17.50;63.00
61672;DHT22;47572;0.00000000;0.00000000;2023-01-31T02:57:11;17.50;63.00
61672;DHT22;47572;0.00000000;0.00000000;2023-01-31T02:59:37;17.50;63.00
61672;DHT22;47572;0.00000000;0.00000000;2023-01-31T03:02:03;17.50;63.00
61672;DHT22;47572;0.00000000;0.00000000;2023-01-31T03:04:32;17.50;63.10
61672;DHT22;47572;0.00000000;0.00000000;2023-01-31T03:07:06;17.50;63.10
61672;DHT22;47572;0.00000000;0.00000000;2023-01-31T03:09:40;17.50;63.20
61672;DHT22;47572;0.00000000;0.00000000;2023-01-31T03:18:05;17.40;63.10
61672;DHT22;47572;0.00000000;0.00000000;2023-01-31T03:20:38;17.40;63.10
61672;DHT22;47572;0.00000000;0.00000000;2023-01-31T03:23:15;17.40;63.20
61672;DHT22;47572;0.00000000;0.00000000;2023-01-31T03:25:41;17.40;63.20
61672;DHT22;47572;0.00000000;0.00000000;2023-01-31T03:28:12;17.40;63.20
61672;DHT22;47572;0.00000000;0.00000000;2023-01-31T03:30:46;17.40;63.20
61672;DHT22;47572;0.00000000;0.00000000;2023-01-31T03:33:20;17.40;63.20
61672;DHT22;47572;0.00000000;0.00000000;2023-01-31T03:35:58;17.40;63.10
61672;DHT22;47572;0.00000000;0.00000000;2023-01-31T03:38:33;17.30;63.10
61672;DHT22;47572;0.00000000;0.00000000;2023-01-31T03:43:47;17.30;63.20
61672;DHT22;47572;0.00000000;0.00000000;2023-01-31T03:46:23;17.30;63.20
61672;DHT22;47572;0.00000000;0.00000000;2023-01-31T03:48:52;17.30;63.20
61672;DHT22;47572;0.00000000;0.00000000;2023-01-31T03:51:23;17.30;63.20
61672;DHT22;47572;0.00000000;0.00000000;2023-01-31T03:53:55;17.30;63.20
61672;DHT22;47572;0.00000000;0.00000000;2023-01-31T03:56:41;17.30;63.20
61672;DHT22;47572;0.00000000;0.00000000;2023-01-31T03:59:13;17.30;63.20
61672;DHT22;47572;0.00000000;0.00000000;2023-01-31T04:01:44;17.30;63.20
61672;DHT22;47572;0.00000000;0.00000000;2023-01-31T04:04:31;17.30;63.20
61672;DHT22;47572;0.00000000;0.00000000;2023-01-31T04:07:02;17.30;63.20
61672;DHT22;47572;0.00000000;0.00000000;2023-01-31T04:09:28;17.20;63.10
61672;DHT22;47572;0.00000000;0.00000000;2023-01-31T04:11:58;17.20;63.20
61672;DHT22;47572;0.00000000;0.00000000;2023-01-31T04:14:25;17.20;63.20
61672;DHT22;47572;0.00000000;0.00000000;2023-01-31T04:16:51;17.20;63.20
61672;DHT22;47572;0.00000000;0.00000000;2023-01-31T04:19:17;17.20;63.20
61672;DHT22;47572;0.00000000;0.00000000;2023-01-31T04:21:43;17.20;63.20
61672;DHT22;47572;0.00000000;0.00000000;2023-01-31T04:24:09;17.20;63.20
61672;DHT22;47572;0.00000000;0.00000000;2023-01-31T04:26:36;17.20;63.20
61672;DHT22;47572;0.00000000;0.00000000;2023-01-31T04:29:04;17.20;63.30
61672;DHT22;47572;0.00000000;0.00000000;2023-01-31T04:31:30;17.20;63.20
61672;DHT22;47572;0.00000000;0.00000000;2023-01-31T04:33:56;17.20;63.20
61672;DHT22;47572;0.00000000;0.00000000;2023-01-31T04:36:23;17.10;63.20
61672;DHT22;47572;0.00000000;0.00000000;2023-01-31T04:38:49;17.20;63.30
61672;DHT22;47572;0.00000000;0.00000000;2023-01-31T04:41:15;17.20;63.30
61672;DHT22;47572;0.00000000;0.00000000;2023-01-31T04:43:41;17.20;63.30
61672;DHT22;47572;0.00000000;0.00000000;2023-01-31T04:46:07;17.20;63.20
61672;DHT22;47572;0.00000000;0.00000000;2023-01-31T04:48:33;17.10;63.20
61672;DHT22;47572;0.00000000;0.00000000;2023-01-31T04:50:59;17.20;63.10
61672;DHT22;47572;0.00000000;0.00000000;2023-01-31T04:53:28;17.20;63.00
61672;DHT22;47572;0.00000000;0.00000000;2023-01-31T04:55:54;17.20;63.00
61672;DHT22;47572;0.00000000;0.00000000;2023-01-31T04:58:21;17.20;62.90
61672;DHT22;47572;0.00000000;0.00000000;2023-01-31T05:00:46;17.20;62.80
61672;DHT22;47572;0.00000000;0.00000000;2023-01-31T05:03:13;17.30;62.80
61672;DHT22;47572;0.00000000;0.00000000;2023-01-31T05:05:39;17.30;62.70
61672;DHT22;47572;0.00000000;0.00000000;2023-01-31T05:08:05;17.30;62.70
61672;DHT22;47572;0.00000000;0.00000000;2023-01-31T05:10:32;17.30;62.60
61672;DHT22;47572;0.00000000;0.00000000;2023-01-31T05:12:59;17.30;62.50
61672;DHT22;47572;0.00000000;0.00000000;2023-01-31T05:15:25;17.40;62.50
61672;DHT22;47572;0.00000000;0.00000000;2023-01-31T05:17:54;17.40;62.50
61672;DHT22;47572;0.00000000;0.00000000;2023-01-31T05:20:32;17.40;62.40
61672;DHT22;47572;0.00000000;0.00000000;2023-01-31T05:23:02;17.40;62.30
61672;DHT22;47572;0.00000000;0.00000000;2023-01-31T05:25:27;17.40;62.30
61672;DHT22;47572;0.00000000;0.00000000;2023-01-31T05:27:54;17.40;62.20
61672;DHT22;47572;0.00000000;0.00000000;2023-01-31T05:30:19;17.40;62.20
61672;DHT22;47572;0.00000000;0.00000000;2023-01-31T05:32:49;17.40;62.20
61672;DHT22;47572;0.00000000;0.00000000;2023-01-31T05:35:15;17.40;62.20
61672;DHT22;47572;0.00000000;0.00000000;2023-01-31T05:37:41;17.40;62.00
61672;DHT22;47572;0.00000000;0.00000000;2023-01-31T05:40:15;17.40;62.00
61672;DHT22;47572;0.00000000;0.00000000;2023-01-31T05:42:42;17.50;62.00
61672;DHT22;47572;0.00000000;0.00000000;2023-01-31T05:45:09;17.50;62.00
61672;DHT22;47572;0.00000000;0.00000000;2023-01-31T05:47:38;17.50;62.00
61672;DHT22;47572;0.00000000;0.00000000;2023-01-31T05:50:04;17.50;61.90
61672;DHT22;47572;0.00000000;0.00000000;2023-01-31T05:52:31;17.50;61.90
61672;DHT22;47572;0.00000000;0.00000000;2023-01-31T05:54:57;17.50;61.90
61672;DHT22;47572;0.00000000;0.00000000;2023-01-31T05:57:23;17.50;61.90
61672;DHT22;47572;0.00000000;0.00000000;2023-01-31T05:59:49;17.50;62.00
61672;DHT22;47572;0.00000000;0.00000000;2023-01-31T06:02:14;17.50;61.90
61672;DHT22;47572;0.00000000;0.00000000;2023-01-31T06:04:45;17.50;62.00
61672;DHT22;47572;0.00000000;0.00000000;2023-01-31T06:07:11;17.50;62.00
61672;DHT22;47572;0.00000000;0.00000000;2023-01-31T06:09:37;17.50;62.00
61672;DHT22;47572;0.00000000;0.00000000;2023-01-31T06:12:12;17.50;62.00
61672;DHT22;47572;0.00000000;0.00000000;2023-01-31T06:14:39;17.50;62.00
61672;DHT22;47572;0.00000000;0.00000000;2023-01-31T06:17:05;17.50;62.00
61672;DHT22;47572;0.00000000;0.00000000;2023-01-31T06:19:31;17.50;62.00
61672;DHT22;47572;0.00000000;0.00000000;2023-01-31T06:21:57;17.50;62.10
61672;DHT22;47572;0.00000000;0.00000000;2023-01-31T06:24:24;17.50;62.10
61672;DHT22;47572;0.00000000;0.00000000;2023-01-31T06:26:52;17.50;62.00
61672;DHT22;47572;0.00000000;0.00000000;2023-01-31T06:29:22;17.50;62.10
61672;DHT22;47572;0.00000000;0.00000000;2023-01-31T06:31:49;17.50;62.10
61672;DHT22;47572;0.00000000;0.00000000;2023-01-31T06:34:15;17.50;62.00
61672;DHT22;47572;0.00000000;0.00000000;2023-01-31T06:36:48;17.50;62.00
61672;DHT22;47572;0.00000000;0.00000000;2023-01-31T06:39:14;17.50;62.10
61672;DHT22;47572;0.00000000;0.00000000;2023-01-31T06:41:40;17.50;62.00
61672;DHT22;47572;0.00000000;0.00000000;2023-01-31T06:44:06;17.50;62.10
61672;DHT22;47572;0.00000000;0.00000000;2023-01-31T06:46:37;17.50;62.00
61672;DHT22;47572;0.00000000;0.00000000;2023-01-31T06:49:03;17.50;62.00
61672;DHT22;47572;0.00000000;0.00000000;2023-01-31T06:51:30;17.50;62.00
61672;DHT22;47572;0.00000000;0.00000000;2023-01-31T06:53:56;17.50;62.00
61672;DHT22;47572;0.00000000;0.00000000;2023-01-31T06:56:22;17.50;61.90
61672;DHT22;47572;0.00000000;0.00000000;2023-01-31T06:58:48;17.50;62.00
61672;DHT22;47572;0.00000000;0.00000000;2023-01-31T07:01:14;17.50;62.00
61672;DHT22;47572;0.00000000;0.00000000;2023-01-31T07:03:41;17.40;61.90
61672;DHT22;47572;0.00000000;0.00000000;2023-01-31T07:06:07;17.50;62.00
61672;DHT22;47572;0.00000000;0.00000000;2023-01-31T07:08:34;17.40;61.90
61672;DHT22;47572;0.00000000;0.00000000;2023-01-31T07:11:00;17.40;61.90
61672;DHT22;47572;0.00000000;0.00000000;2023-01-31T07:13:27;17.40;61.90
61672;DHT22;47572;0.00000000;0.00000000;2023-01-31T07:15:57;17.40;62.00
61672;DHT22;47572;0.00000000;0.00000000;2023-01-31T07:18:23;17.40;61.90
61672;DHT22;47572;0.00000000;0.00000000;2023-01-31T07:20:49;17.40;61.90
61672;DHT22;47572;0.00000000;0.00000000;2023-01-31T07:23:15;17.40;61.90
61672;DHT22;47572;0.00000000;0.00000000;2023-01-31T07:25:42;17.40;61.80
61672;DHT22;47572;0.00000000;0.00000000;2023-01-31T07:28:08;17.40;61.80
61672;DHT22;47572;0.00000000;0.00000000;2023-01-31T07:30:34;17.40;61.80
61672;DHT22;47572;0.00000000;0.00000000;2023-01-31T07:33:00;17.40;61.80
61672;DHT22;47572;0.00000000;0.00000000;2023-01-31T07:35:27;17.40;61.80
61672;DHT22;47572;0.00000000;0.00000000;2023-01-31T07:37:53;17.40;61.80
61672;DHT22;47572;0.00000000;0.00000000;2023-01-31T07:40:20;17.40;61.70
61672;DHT22;47572;0.00000000;0.00000000;2023-01-31T07:42:46;17.40;61.60
61672;DHT22;47572;0.00000000;0.00000000;2023-01-31T07:45:15;17.40;61.80
61672;DHT22;47572;0.00000000;0.00000000;2023-01-31T07:47:41;17.40;61.90
61672;DHT22;47572;0.00000000;0.00000000;2023-01-31T07:50:08;17.50;61.90
61672;DHT22;47572;0.00000000;0.00000000;2023-01-31T07:52:34;17.50;61.60
61672;DHT22;47572;0.00000000;0.00000000;2023-01-31T07:55:00;17.60;61.40
61672;DHT22;47572;0.00000000;0.00000000;2023-01-31T07:57:25;17.80;61.10
61672;DHT22;47572;0.00000000;0.00000000;2023-01-31T07:59:51;17.90;60.70
61672;DHT22;47572;0.00000000;0.00000000;2023-01-31T08:02:17;18.00;60.40
61672;DHT22;47572;0.00000000;0.00000000;2023-01-31T08:05:02;18.10;60.10
61672;DHT22;47572;0.00000000;0.00000000;2023-01-31T08:07:29;18.30;59.70
61672;DHT22;47572;0.00000000;0.00000000;2023-01-31T08:09:55;18.40;59.50
61672;DHT22;47572;0.00000000;0.00000000;2023-01-31T08:12:21;18.50;59.30
61672;DHT22;47572;0.00000000;0.00000000;2023-01-31T08:14:47;18.60;59.20
61672;DHT22;47572;0.00000000;0.00000000;2023-01-31T08:17:14;18.60;59.00
61672;DHT22;47572;0.00000000;0.00000000;2023-01-31T08:19:40;18.70;59.00
61672;DHT22;47572;0.00000000;0.00000000;2023-01-31T08:22:06;18.70;58.90
61672;DHT22;47572;0.00000000;0.00000000;2023-01-31T08:24:33;18.80;58.80
61672;DHT22;47572;0.00000000;0.00000000;2023-01-31T08:27:00;18.80;58.70
61672;DHT22;47572;0.00000000;0.00000000;2023-01-31T08:29:26;18.90;58.60
61672;DHT22;47572;0.00000000;0.00000000;2023-01-31T08:31:54;19.00;58.50
61672;DHT22;47572;0.00000000;0.00000000;2023-01-31T08:34:20;19.10;58.30
61672;DHT22;47572;0.00000000;0.00000000;2023-01-31T08:36:48;19.20;58.20
61672;DHT22;47572;0.00000000;0.00000000;2023-01-31T08:39:13;19.20;58.10
61672;DHT22;47572;0.00000000;0.00000000;2023-01-31T08:41:41;19.20;57.90
61672;DHT22;47572;0.00000000;0.00000000;2023-01-31T08:44:07;19.30;57.90
61672;DHT22;47572;0.00000000;0.00000000;2023-01-31T08:46:35;19.30;57.90
61672;DHT22;47572;0.00000000;0.00000000;2023-01-31T08:49:07;19.20;57.90
61672;DHT22;47572;0.00000000;0.00000000;2023-01-31T08:51:34;19.20;58.00
61672;DHT22;47572;0.00000000;0.00000000;2023-01-31T08:54:00;19.20;58.10
61672;DHT22;47572;0.00000000;0.00000000;2023-01-31T08:56:26;19.20;58.30
61672;DHT22;47572;0.00000000;0.00000000;2023-01-31T08:58:53;19.10;58.30
61672;DHT22;47572;0.00000000;0.00000000;2023-01-31T09:01:20;19.00;58.40
61672;DHT22;47572;0.00000000;0.00000000;2023-01-31T09:03:49;19.10;58.50
61672;DHT22;47572;0.00000000;0.00000000;2023-01-31T09:06:21;19.10;58.60
61672;DHT22;47572;0.00000000;0.00000000;2023-01-31T09:08:49;19.00;58.50
61672;DHT22;47572;0.00000000;0.00000000;2023-01-31T09:11:15;19.10;58.40
61672;DHT22;47572;0.00000000;0.00000000;2023-01-31T09:13:48;19.20;58.30
61672;DHT22;47572;0.00000000;0.00000000;2023-01-31T09:16:16;19.20;59.10
61672;DHT22;47572;0.00000000;0.00000000;2023-01-31T09:18:42;19.30;58.10
61672;DHT22;47572;0.00000000;0.00000000;2023-01-31T09:21:12;19.40;58.10
61672;DHT22;47572;0.00000000;0.00000000;2023-01-31T09:23:44;19.40;58.00
61672;DHT22;47572;0.00000000;0.00000000;2023-01-31T09:26:10;19.50;57.90
61672;DHT22;47572;0.00000000;0.00000000;2023-01-31T09:28:37;19.50;57.80
61672;DHT22;47572;0.00000000;0.00000000;2023-01-31T09:31:12;19.50;57.70
61672;DHT22;47572;0.00000000;0.00000000;2023-01-31T09:33:38;19.50;57.70
61672;DHT22;47572;0.00000000;0.00000000;2023-01-31T09:36:06;19.50;57.50
61672;DHT22;47572;0.00000000;0.00000000;2023-01-31T09:38:33;19.50;57.40
61672;DHT22;47572;0.00000000;0.00000000;2023-01-31T09:41:04;19.50;57.60
61672;DHT22;47572;0.00000000;0.00000000;2023-01-31T09:43:37;19.50;57.30
61672;DHT22;47572;0.00000000;0.00000000;2023-01-31T09:46:12;19.50;57.30
61672;DHT22;47572;0.00000000;0.00000000;2023-01-31T09:48:46;19.50;57.40
61672;DHT22;47572;0.00000000;0.00000000;2023-01-31T09:51:13;19.40;57.40
61672;DHT22;47572;0.00000000;0.00000000;2023-01-31T09:53:42;19.40;57.50
61672;DHT22;47572;0.00000000;0.00000000;2023-01-31T09:58:54;19.30;57.80
61672;DHT22;47572;0.00000000;0.00000000;2023-01-31T10:04:03;19.20;58.10
61672;DHT22;47572;0.00000000;0.00000000;2023-01-31T10:06:59;19.10;58.20
61672;DHT22;47572;0.00000000;0.00000000;2023-01-31T10:09:36;19.00;58.40
61672;DHT22;47572;0.00000000;0.00000000;2023-01-31T10:12:16;18.90;58.60
61672;DHT22;47572;0.00000000;0.00000000;2023-01-31T10:14:47;18.80;58.60
61672;DHT22;47572;0.00000000;0.00000000;2023-01-31T10:17:54;18.80;58.80
61672;DHT22;47572;0.00000000;0.00000000;2023-01-31T10:20:33;18.70;58.90
61672;DHT22;47572;0.00000000;0.00000000;2023-01-31T10:23:17;18.70;59.10
61672;DHT22;47572;0.00000000;0.00000000;2023-01-31T10:26:05;18.60;59.20
61672;DHT22;47572;0.00000000;0.00000000;2023-01-31T10:28:59;18.60;59.40
61672;DHT22;47572;0.00000000;0.00000000;2023-01-31T10:34:17;18.50;59.60
61672;DHT22;47572;0.00000000;0.00000000;2023-01-31T10:39:41;18.40;59.70
61672;DHT22;47572;0.00000000;0.00000000;2023-01-31T10:42:33;18.40;60.00
61672;DHT22;47572;0.00000000;0.00000000;2023-01-31T10:47:36;18.30;60.00
61672;DHT22;47572;0.00000000;0.00000000;2023-01-31T10:50:15;18.30;60.10
61672;DHT22;47572;0.00000000;0.00000000;2023-01-31T10:56:09;18.20;60.10
61672;DHT22;47572;0.00000000;0.00000000;2023-01-31T10:58:45;18.20;60.30
61672;DHT22;47572;0.00000000;0.00000000;2023-01-31T11:01:11;18.20;60.30
61672;DHT22;47572;0.00000000;0.00000000;2023-01-31T11:03:54;18.20;60.50
61672;DHT22;47572;0.00000000;0.00000000;2023-01-31T11:06:22;18.10;60.40
61672;DHT22;47572;0.00000000;0.00000000;2023-01-31T11:09:09;18.10;60.40
61672;DHT22;47572;0.00000000;0.00000000;2023-01-31T11:11:55;18.10;60.40
61672;DHT22;47572;0.00000000;0.00000000;2023-01-31T11:14:21;18.10;60.40
61672;DHT22;47572;0.00000000;0.00000000;2023-01-31T11:16:48;18.00;60.50
61672;DHT22;47572;0.00000000;0.00000000;2023-01-31T11:22:02;18.00;60.50
61672;DHT22;47572;0.00000000;0.00000000;2023-01-31T11:24:30;18.00;60.50
61672;DHT22;47572;0.00000000;0.00000000;2023-01-31T11:27:05;18.00;60.50
61672;DHT22;47572;0.00000000;0.00000000;2023-01-31T11:29:33;18.00;60.50
61672;DHT22;47572;0.00000000;0.00000000;2023-01-31T11:32:04;18.00;60.50
61672;DHT22;47572;0.00000000;0.00000000;2023-01-31T11:34:31;18.00;60.50
61672;DHT22;47572;0.00000000;0.00000000;2023-01-31T11:37:16;18.00;60.50
61672;DHT22;47572;0.00000000;0.00000000;2023-01-31T11:40:03;18.00;60.40
61672;DHT22;47572;0.00000000;0.00000000;2023-01-31T11:45:19;18.00;60.30
61672;DHT22;47572;0.00000000;0.00000000;2023-01-31T11:47:48;18.00;60.30
61672;DHT22;47572;0.00000000;0.00000000;2023-01-31T11:50:39;18.00;60.30
61672;DHT22;47572;0.00000000;0.00000000;2023-01-31T11:53:19;18.00;60.20
61672;DHT22;47572;0.00000000;0.00000000;2023-01-31T11:55:47;18.00;60.10
61672;DHT22;47572;0.00000000;0.00000000;2023-01-31T11:58:36;18.10;60.20
61672;DHT22;47572;0.00000000;0.00000000;2023-01-31T12:01:12;18.00;60.20
61672;DHT22;47572;0.00000000;0.00000000;2023-01-31T12:03:47;18.00;61.00
61672;DHT22;47572;0.00000000;0.00000000;2023-01-31T12:06:30;18.10;60.20
61672;DHT22;47572;0.00000000;0.00000000;2023-01-31T12:08:59;18.00;60.10
61672;DHT22;47572;0.00000000;0.00000000;2023-01-31T12:11:33;18.00;60.10
61672;DHT22;47572;0.00000000;0.00000000;2023-01-31T12:14:16;18.00;60.00
61672;DHT22;47572;0.00000000;0.00000000;2023-01-31T12:16:55;18.10;60.00
61672;DHT22;47572;0.00000000;0.00000000;2023-01-31T12:19:30;18.10;60.00
61672;DHT22;47572;0.00000000;0.00000000;2023-01-31T12:25:14;18.10;60.00
61672;DHT22;47572;0.00000000;0.00000000;2023-01-31T12:33:14;18.10;59.90
61672;DHT22;47572;0.00000000;0.00000000;2023-01-31T12:36:21;18.10;60.00
61672;DHT22;47572;0.00000000;0.00000000;2023-01-31T12:38:52;18.10;59.90
61672;DHT22;47572;0.00000000;0.00000000;2023-01-31T12:41:31;18.10;60.00
61672;DHT22;47572;0.00000000;0.00000000;2023-01-31T12:57:43;18.10;59.90
61672;DHT22;47572;0.00000000;0.00000000;2023-01-31T13:05:52;18.10;59.80
61672;DHT22;47572;0.00000000;0.00000000;2023-01-31T13:08:29;18.10;59.90
61672;DHT22;47572;0.00000000;0.00000000;2023-01-31T13:11:02;18.10;59.80
61672;DHT22;47572;0.00000000;0.00000000;2023-01-31T13:13:56;18.10;59.70
61672;DHT22;47572;0.00000000;0.00000000;2023-01-31T13:16:36;18.20;59.60
61672;DHT22;47572;0.00000000;0.00000000;2023-01-31T13:19:08;18.20;59.60
61672;DHT22;47572;0.00000000;0.00000000;2023-01-31T13:21:42;18.30;59.40
61672;DHT22;47572;0.00000000;0.00000000;2023-01-31T13:24:12;18.40;59.40
61672;DHT22;47572;0.00000000;0.00000000;2023-01-31T13:31:45;18.70;58.90
61672;DHT22;47572;0.00000000;0.00000000;2023-01-31T13:34:28;18.80;58.80
61672;DHT22;47572;0.00000000;0.00000000;2023-01-31T13:37:06;19.00;58.60
61672;DHT22;47572;0.00000000;0.00000000;2023-01-31T13:39:54;19.10;58.30
61672;DHT22;47572;0.00000000;0.00000000;2023-01-31T13:42:21;19.30;58.10
61672;DHT22;47572;0.00000000;0.00000000;2023-01-31T13:44:48;19.40;57.70
61672;DHT22;47572;0.00000000;0.00000000;2023-01-31T13:47:26;19.50;57.50
61672;DHT22;47572;0.00000000;0.00000000;2023-01-31T13:50:06;19.60;57.10
61672;DHT22;47572;0.00000000;0.00000000;2023-01-31T13:52:38;19.70;56.90
61672;DHT22;47572;0.00000000;0.00000000;2023-01-31T13:55:17;19.80;56.80
61672;DHT22;47572;0.00000000;0.00000000;2023-01-31T13:58:29;19.80;56.70
61672;DHT22;47572;0.00000000;0.00000000;2023-01-31T14:01:50;19.90;56.70
61672;DHT22;47572;0.00000000;0.00000000;2023-01-31T14:10:24;19.90;56.70
61672;DHT22;47572;0.00000000;0.00000000;2023-01-31T14:12:28;19.90;56.60
61672;DHT22;47572;0.00000000;0.00000000;2023-01-31T14:14:56;20.00;56.50
61672;DHT22;47572;0.00000000;0.00000000;2023-01-31T14:22:28;20.00;56.40
61672;DHT22;47572;0.00000000;0.00000000;2023-01-31T14:25:02;20.10;56.40
61672;DHT22;47572;0.00000000;0.00000000;2023-01-31T14:32:43;20.10;56.30
61672;DHT22;47572;0.00000000;0.00000000;2023-01-31T14:58:05;20.20;56.30
61672;DHT22;47572;0.00000000;0.00000000;2023-01-31T15:00:47;20.20;56.30
61672;DHT22;47572;0.00000000;0.00000000;2023-01-31T15:03:27;20.20;56.20
61672;DHT22;47572;0.00000000;0.00000000;2023-01-31T15:08:49;20.30;56.30
61672;DHT22;47572;0.00000000;0.00000000;2023-01-31T15:13:55;20.30;56.20
61672;DHT22;47572;0.00000000;0.00000000;2023-01-31T15:16:25;20.30;56.30
61672;DHT22;47572;0.00000000;0.00000000;2023-01-31T15:19:09;20.30;56.20
61672;DHT22;47572;0.00000000;0.00000000;2023-01-31T15:24:18;20.40;56.20
61672;DHT22;47572;0.00000000;0.00000000;2023-01-31T15:26:49;20.40;56.20
61672;DHT22;47572;0.00000000;0.00000000;2023-01-31T15:29:22;20.40;56.20
61672;DHT22;47572;0.00000000;0.00000000;2023-01-31T15:31:52;20.40;56.20
61672;DHT22;47572;0.00000000;0.00000000;2023-01-31T15:34:30;20.40;56.10
61672;DHT22;47572;0.00000000;0.00000000;2023-01-31T15:37:16;20.40;56.10
61672;DHT22;47572;0.00000000;0.00000000;2023-01-31T15:39:52;20.40;56.20
61672;DHT22;47572;0.00000000;0.00000000;2023-01-31T15:42:25;20.40;56.20
61672;DHT22;47572;0.00000000;0.00000000;2023-01-31T15:45:11;20.40;56.20
61672;DHT22;47572;0.00000000;0.00000000;2023-01-31T15:47:37;20.40;56.30
61672;DHT22;47572;0.00000000;0.00000000;2023-01-31T15:50:15;20.50;56.30
61672;DHT22;47572;0.00000000;0.00000000;2023-01-31T15:52:41;20.50;56.40
61672;DHT22;47572;0.00000000;0.00000000;2023-01-31T15:55:14;20.40;56.30
61672;DHT22;47572;0.00000000;0.00000000;2023-01-31T15:57:47;20.50;56.30
61672;DHT22;47572;0.00000000;0.00000000;2023-01-31T16:00:24;20.40;56.20
61672;DHT22;47572;0.00000000;0.00000000;2023-01-31T16:02:55;20.50;56.20
61672;DHT22;47572;0.00000000;0.00000000;2023-01-31T16:05:30;20.40;56.10
61672;DHT22;47572;0.00000000;0.00000000;2023-01-31T16:07:58;20.50;56.10